Time;durP1;ratioP1;P1;durP2;ratioP2;P2;SDS_P1;SDS_P2;PMS_P1;PMS_P2;Temp;Humidity;BMP_temperature;BMP_pressure;BME280_temperature;BME280_humidity;BME280_pressure;Samples;Min_cycle;Max_cycle;Signal;HPM_P1;HPM_P2
2023/07/28 00:00:13;;;;;;;5.72;3.00;;;15.10;99.90;;;;;;4995795;28;20030;-81
2023/07/28 00:02:38;;;;;;;5.53;3.95;;;15.00;99.90;;;;;;4993948;28;20161;-81
2023/07/28 00:05:04;;;;;;;5.80;2.88;;;15.00;99.90;;;;;;4994004;28;20030;-81
2023/07/28 00:07:30;;;;;;;4.45;3.20;;;15.00;99.90;;;;;;4993059;28;20026;-81
2023/07/28 00:09:55;;;;;;;6.70;3.60;;;15.00;99.90;;;;;;4994675;28;20025;-81
2023/07/28 00:12:22;;;;;;;8.77;3.63;;;14.90;99.90;;;;;;4994757;28;20033;-81
2023/07/28 00:14:47;;;;;;;5.05;3.10;;;14.90;99.90;;;;;;4993621;28;20164;-81
2023/07/28 00:17:13;;;;;;;5.40;3.20;;;15.00;99.90;;;;;;4992310;28;20077;-81
2023/07/28 00:19:38;;;;;;;6.45;3.78;;;15.00;99.90;;;;;;4992988;28;20034;-81
2023/07/28 00:22:04;;;;;;;7.55;3.08;;;15.00;99.90;;;;;;4995428;28;20366;-81
2023/07/28 00:24:29;;;;;;;4.95;3.33;;;15.00;99.90;;;;;;4993715;28;20965;-81
2023/07/28 00:26:55;;;;;;;5.00;3.13;;;15.00;99.90;;;;;;4993175;28;20037;-81
2023/07/28 00:29:20;;;;;;;6.70;3.70;;;15.10;99.90;;;;;;4994395;28;20033;-81
2023/07/28 00:31:46;;;;;;;4.72;3.20;;;15.10;99.90;;;;;;4995099;28;20034;-81
2023/07/28 00:34:12;;;;;;;6.03;3.33;;;15.10;99.90;;;;;;4993558;28;20050;-81
2023/07/28 00:36:38;;;;;;;5.00;3.05;;;15.10;99.90;;;;;;4993617;28;20026;-81
2023/07/28 00:39:03;;;;;;;8.65;3.10;;;15.10;99.90;;;;;;4995132;28;20358;-81
2023/07/28 00:41:29;;;;;;;6.00;3.38;;;15.20;99.90;;;;;;4993473;28;20552;-81
2023/07/28 00:43:54;;;;;;;4.55;3.30;;;15.20;99.90;;;;;;4994223;28;20035;-81
2023/07/28 00:46:20;;;;;;;5.57;3.40;;;15.20;99.90;;;;;;4993173;28;20046;-81
2023/07/28 00:48:46;;;;;;;5.55;3.35;;;15.20;99.90;;;;;;4993744;28;20022;-81
2023/07/28 00:51:11;;;;;;;6.78;3.25;;;15.20;99.90;;;;;;4992129;28;20034;-81
2023/07/28 00:53:37;;;;;;;6.25;3.10;;;15.20;99.90;;;;;;4994157;28;20053;-81
2023/07/28 00:56:04;;;;;;;4.18;3.40;;;15.20;99.90;;;;;;4993982;28;20030;-82
2023/07/28 00:58:30;;;;;;;3.85;3.13;;;15.20;99.90;;;;;;4993383;28;20053;-81
2023/07/28 01:00:56;;;;;;;4.28;3.22;;;15.20;99.90;;;;;;4995096;28;20030;-82
2023/07/28 01:03:22;;;;;;;4.00;3.05;;;15.20;99.90;;;;;;4992488;28;20133;-81
2023/07/28 01:06:20;;;;;;;8.43;3.72;;;15.20;99.90;;;;;;4993894;28;20051;-81
2023/07/28 01:09:08;;;;;;;4.32;2.92;;;15.10;99.90;;;;;;4993494;28;20121;-81
2023/07/28 01:11:33;;;;;;;4.18;2.90;;;15.10;99.90;;;;;;4994617;28;20624;-81
2023/07/28 01:13:59;;;;;;;6.97;3.58;;;15.00;99.90;;;;;;4994597;28;20030;-81
2023/07/28 01:16:24;;;;;;;4.45;3.38;;;15.00;99.90;;;;;;4993424;28;20034;-82
2023/07/28 01:18:50;;;;;;;7.85;3.10;;;15.00;99.90;;;;;;4993169;28;20034;-81
2023/07/28 01:21:21;;;;;;;4.70;3.20;;;14.90;99.90;;;;;;4993401;28;20045;-81
2023/07/28 01:24:04;;;;;;;6.63;3.33;;;14.80;99.90;;;;;;4994953;28;21371;-81
2023/07/28 01:26:37;;;;;;;4.93;3.50;;;14.80;99.90;;;;;;4992271;28;20052;-81
2023/07/28 01:29:06;;;;;;;4.55;3.15;;;14.80;99.90;;;;;;4992849;28;20053;-81
2023/07/28 01:31:31;;;;;;;5.72;3.00;;;14.70;99.90;;;;;;4992775;28;20026;-81
2023/07/28 01:33:57;;;;;;;5.28;2.67;;;14.70;99.90;;;;;;4993855;28;20033;-81
2023/07/28 01:36:22;;;;;;;6.18;2.97;;;14.70;99.90;;;;;;4992417;28;20089;-82
2023/07/28 01:38:48;;;;;;;7.45;3.85;;;14.70;99.90;;;;;;4991934;28;20118;-81
2023/07/28 01:41:14;;;;;;;6.13;3.17;;;14.70;99.90;;;;;;4992917;28;20033;-81
2023/07/28 01:43:39;;;;;;;4.30;2.92;;;14.60;99.90;;;;;;4992781;28;20030;-81
2023/07/28 01:46:05;;;;;;;5.90;3.35;;;14.60;99.90;;;;;;4991872;28;20847;-81
2023/07/28 01:48:31;;;;;;;6.05;3.22;;;14.60;99.90;;;;;;4989989;28;20037;-81
2023/07/28 01:50:56;;;;;;;4.30;3.00;;;14.60;99.90;;;;;;4990571;28;20074;-81
2023/07/28 01:53:22;;;;;;;5.43;3.05;;;14.60;99.90;;;;;;4991266;28;20049;-81
2023/07/28 01:55:47;;;;;;;4.88;3.00;;;14.60;99.90;;;;;;4989857;28;20496;-81
2023/07/28 01:58:13;;;;;;;6.10;3.42;;;14.50;99.90;;;;;;4992394;28;20038;-81
2023/07/28 02:00:38;;;;;;;4.10;2.53;;;14.50;99.90;;;;;;4990684;28;20014;-81
2023/07/28 02:03:04;;;;;;;4.43;2.92;;;14.50;99.90;;;;;;4992415;28;20022;-81
2023/07/28 02:05:30;;;;;;;5.15;2.97;;;14.50;99.90;;;;;;4988499;28;20034;-81
2023/07/28 02:07:57;;;;;;;4.18;2.85;;;14.50;99.90;;;;;;4990781;28;20048;-81
2023/07/28 02:10:23;;;;;;;5.22;2.83;;;14.50;99.90;;;;;;4991328;28;20038;-81
2023/07/28 02:12:50;;;;;;;4.35;2.78;;;14.50;99.90;;;;;;4991526;28;20026;-81
2023/07/28 02:15:16;;;;;;;7.05;3.13;;;14.60;99.90;;;;;;4990365;28;20036;-81
2023/07/28 02:17:42;;;;;;;4.18;2.70;;;14.60;99.90;;;;;;4988690;28;20085;-81
2023/07/28 02:20:10;;;;;;;6.00;2.78;;;14.70;99.90;;;;;;4987481;28;20037;-81
2023/07/28 02:22:36;;;;;;;6.72;3.10;;;14.70;99.90;;;;;;4985792;28;20084;-81
2023/07/28 02:25:02;;;;;;;6.10;3.08;;;14.60;99.90;;;;;;4986880;28;20036;-81
2023/07/28 02:27:28;;;;;;;5.82;3.20;;;14.70;99.90;;;;;;4987766;28;20034;-81
2023/07/28 02:29:53;;;;;;;7.05;3.30;;;14.60;99.90;;;;;;4988420;28;21456;-81
2023/07/28 02:32:19;;;;;;;4.97;2.80;;;14.60;99.90;;;;;;4988419;28;20113;-81
2023/07/28 02:34:45;;;;;;;5.63;3.28;;;14.60;99.90;;;;;;5003257;28;20030;-81
2023/07/28 02:37:10;;;;;;;5.28;3.20;;;14.60;99.90;;;;;;4988458;28;20061;-81
2023/07/28 02:39:36;;;;;;;7.78;3.60;;;14.60;99.90;;;;;;4988730;28;20026;-81
2023/07/28 02:42:01;;;;;;;5.45;3.20;;;14.60;99.90;;;;;;4991257;28;20026;-81
2023/07/28 02:44:27;;;;;;;4.68;2.90;;;14.60;99.90;;;;;;4991541;28;20711;-81
2023/07/28 02:46:52;;;;;;;3.90;3.10;;;14.60;99.90;;;;;;4992671;28;20027;-81
2023/07/28 02:49:18;;;;;;;4.13;3.30;;;14.60;99.90;;;;;;4988265;28;20038;-81
2023/07/28 02:51:43;;;;;;;5.45;2.88;;;14.60;99.90;;;;;;4991341;28;20118;-81
2023/07/28 02:54:09;;;;;;;6.00;3.03;;;14.60;99.90;;;;;;4992748;28;20427;-81
2023/07/28 02:56:37;;;;;;;7.25;3.60;;;14.60;99.90;;;;;;4991627;28;20033;-81
2023/07/28 02:59:03;;;;;;;5.15;2.67;;;14.60;99.90;;;;;;4994036;28;20035;-81
2023/07/28 03:01:32;;;;;;;4.03;3.10;;;14.60;99.90;;;;;;4993306;28;20034;-81
2023/07/28 03:04:01;;;;;;;8.88;2.70;;;14.60;99.90;;;;;;4996345;28;20045;-81
2023/07/28 03:06:27;;;;;;;7.03;3.40;;;14.60;99.90;;;;;;4993874;28;20066;-82
2023/07/28 03:08:52;;;;;;;3.90;2.70;;;14.60;99.90;;;;;;4995613;28;20065;-81
2023/07/28 03:11:18;;;;;;;4.88;2.80;;;14.60;99.90;;;;;;4994631;28;20738;-81
2023/07/28 03:13:43;;;;;;;3.97;2.78;;;14.70;99.90;;;;;;4995100;28;20080;-81
2023/07/28 03:16:09;;;;;;;4.70;2.90;;;14.60;99.90;;;;;;4994980;28;20033;-81
2023/07/28 03:18:35;;;;;;;6.85;3.00;;;14.70;99.90;;;;;;4995691;28;20034;-81
2023/07/28 03:21:01;;;;;;;4.93;3.03;;;14.70;99.90;;;;;;4994909;28;20085;-81
2023/07/28 03:23:26;;;;;;;4.85;2.78;;;14.70;99.90;;;;;;4994555;28;20039;-81
2023/07/28 03:25:52;;;;;;;6.53;2.97;;;14.70;99.90;;;;;;4994320;28;20038;-81
2023/07/28 03:28:17;;;;;;;4.05;2.65;;;14.70;99.90;;;;;;4995587;28;20049;-81
2023/07/28 03:30:43;;;;;;;4.55;2.70;;;14.70;99.90;;;;;;4995008;28;20118;-81
2023/07/28 03:33:08;;;;;;;5.57;2.83;;;14.70;99.90;;;;;;4991970;28;20030;-79
2023/07/28 03:35:34;;;;;;;6.95;2.92;;;14.70;99.90;;;;;;4992947;28;20125;-80
2023/07/28 03:37:59;;;;;;;4.53;2.70;;;14.70;99.90;;;;;;4992591;28;21508;-80
2023/07/28 03:40:25;;;;;;;4.25;2.80;;;14.70;99.90;;;;;;4993078;28;20036;-80
2023/07/28 03:42:52;;;;;;;7.28;3.40;;;14.70;99.90;;;;;;4990455;28;20035;-80
2023/07/28 03:45:17;;;;;;;5.40;2.60;;;14.70;99.90;;;;;;4993436;28;20117;-79
2023/07/28 03:47:43;;;;;;;6.03;2.65;;;14.70;99.90;;;;;;4991260;28;20079;-79
2023/07/28 03:50:08;;;;;;;6.57;2.53;;;14.70;99.90;;;;;;4996415;28;20057;-82
2023/07/28 03:52:34;;;;;;;5.45;2.88;;;14.80;99.90;;;;;;4997471;28;20069;-83
2023/07/28 03:54:59;;;;;;;5.50;2.42;;;14.80;99.90;;;;;;4999531;28;20030;-83
2023/07/28 03:57:25;;;;;;;4.80;2.78;;;14.80;99.90;;;;;;4993438;28;20026;-83
2023/07/28 03:59:50;;;;;;;5.10;3.00;;;14.80;99.90;;;;;;4994215;28;20027;-83
2023/07/28 04:02:16;;;;;;;4.75;2.92;;;14.80;99.90;;;;;;4995839;28;20038;-82
2023/07/28 04:04:41;;;;;;;5.65;2.95;;;14.80;99.90;;;;;;4996181;28;20030;-82
2023/07/28 04:07:07;;;;;;;8.25;2.90;;;14.90;99.90;;;;;;4997500;28;21081;-82
2023/07/28 04:09:33;;;;;;;3.42;2.45;;;14.90;99.90;;;;;;4994027;28;20490;-82
2023/07/28 04:11:58;;;;;;;4.72;2.55;;;14.90;99.90;;;;;;4991516;28;20030;-83
2023/07/28 04:14:24;;;;;;;8.80;3.03;;;14.90;99.90;;;;;;4992587;28;20026;-80
2023/07/28 04:16:49;;;;;;;5.70;2.80;;;14.90;99.90;;;;;;4991632;28;20038;-80
2023/07/28 04:19:15;;;;;;;5.63;2.80;;;15.00;99.90;;;;;;4990971;28;20023;-80
2023/07/28 04:21:40;;;;;;;5.75;2.92;;;15.00;99.90;;;;;;4990780;28;20022;-79
2023/07/28 04:24:09;;;;;;;3.55;2.88;;;15.10;99.90;;;;;;4989134;28;20033;-80
2023/07/28 04:26:35;;;;;;;4.78;2.65;;;15.20;99.90;;;;;;4986162;28;20105;-80
2023/07/28 04:29:01;;;;;;;4.35;2.80;;;15.20;99.90;;;;;;4989659;28;20116;-80
2023/07/28 04:31:26;;;;;;;4.65;2.83;;;15.30;99.90;;;;;;4989779;28;20125;-80
2023/07/28 04:33:52;;;;;;;4.20;2.33;;;15.30;99.90;;;;;;4987646;28;20033;-79
2023/07/28 04:36:17;;;;;;;4.32;2.60;;;15.30;99.90;;;;;;4984500;28;20035;-79
2023/07/28 04:38:43;;;;;;;4.35;2.80;;;15.40;99.90;;;;;;4988891;28;20030;-80
2023/07/28 04:41:08;;;;;;;5.95;2.75;;;15.40;99.90;;;;;;4991780;28;20038;-79
2023/07/28 04:43:34;;;;;;;4.07;2.72;;;15.40;99.90;;;;;;4989991;28;20038;-79
2023/07/28 04:45:59;;;;;;;4.25;2.83;;;15.50;99.90;;;;;;4989181;28;20806;-79
2023/07/28 04:48:26;;;;;;;5.25;2.60;;;15.40;99.90;;;;;;4988835;28;20042;-79
2023/07/28 04:50:52;;;;;;;5.13;2.67;;;15.40;99.90;;;;;;4987595;28;20038;-80
2023/07/28 04:53:17;;;;;;;4.85;2.65;;;15.40;99.90;;;;;;4987302;28;20034;-73
2023/07/28 04:55:43;;;;;;;5.47;3.10;;;15.50;99.90;;;;;;4987325;28;20035;-79
2023/07/28 04:58:08;;;;;;;4.53;2.70;;;15.50;99.90;;;;;;4983039;28;20027;-79
2023/07/28 05:00:34;;;;;;;7.53;2.92;;;15.50;99.90;;;;;;4986523;28;20596;-79
2023/07/28 05:02:59;;;;;;;4.10;2.60;;;15.60;99.90;;;;;;4986349;28;20022;-78
2023/07/28 05:05:25;;;;;;;4.00;2.63;;;15.60;99.90;;;;;;4983498;28;20058;-79
2023/07/28 05:07:50;;;;;;;5.80;2.80;;;15.70;99.90;;;;;;4984968;28;20025;-79
2023/07/28 05:10:16;;;;;;;5.32;2.58;;;15.70;99.90;;;;;;4986882;28;20022;-79
2023/07/28 05:12:41;;;;;;;4.30;2.92;;;15.80;99.90;;;;;;4985327;28;20026;-78
2023/07/28 05:15:10;;;;;;;6.38;2.67;;;15.80;99.90;;;;;;4986648;28;20037;-79
2023/07/28 05:17:37;;;;;;;3.88;2.63;;;15.90;99.90;;;;;;4984523;28;20263;-79
2023/07/28 05:20:03;;;;;;;4.75;2.70;;;15.90;99.90;;;;;;4984281;28;20121;-79
2023/07/28 05:22:28;;;;;;;4.45;2.78;;;16.00;99.90;;;;;;4985321;28;20093;-79
2023/07/28 05:24:54;;;;;;;3.20;2.70;;;16.10;99.90;;;;;;4984862;28;20042;-78
2023/07/28 05:27:19;;;;;;;4.20;2.88;;;16.20;99.90;;;;;;4983539;28;20026;-79
2023/07/28 05:29:45;;;;;;;3.85;2.67;;;16.20;99.90;;;;;;4986103;28;20163;-78
2023/07/28 05:32:10;;;;;;;4.32;2.70;;;16.30;99.90;;;;;;4985104;28;20684;-79
2023/07/28 05:34:36;;;;;;;5.10;3.28;;;16.40;99.90;;;;;;4986384;28;20053;-79
2023/07/28 05:37:02;;;;;;;5.40;2.90;;;16.40;99.90;;;;;;4986241;28;20050;-79
2023/07/28 05:39:28;;;;;;;4.53;2.85;;;16.50;99.90;;;;;;4987128;28;20054;-79
2023/07/28 05:41:54;;;;;;;5.65;2.92;;;16.60;99.90;;;;;;4984489;28;20168;-79
2023/07/28 05:44:19;;;;;;;3.70;2.80;;;16.70;99.90;;;;;;4982096;28;20037;-79
2023/07/28 05:46:45;;;;;;;6.10;2.90;;;16.80;99.90;;;;;;4984174;28;20386;-79
2023/07/28 05:49:11;;;;;;;7.53;3.10;;;16.80;99.90;;;;;;4984076;28;20133;-78
2023/07/28 05:51:36;;;;;;;7.53;3.10;;;16.90;99.90;;;;;;4985650;28;20492;-79
2023/07/28 05:54:02;;;;;;;4.47;2.72;;;17.00;99.90;;;;;;4983979;28;20084;-79
2023/07/28 05:56:27;;;;;;;4.90;3.00;;;17.10;99.90;;;;;;4983342;28;20038;-80
2023/07/28 05:58:53;;;;;;;6.68;2.80;;;17.20;99.90;;;;;;4981565;28;20077;-78
2023/07/28 06:01:19;;;;;;;5.78;3.08;;;17.40;99.90;;;;;;4981091;28;20176;-80
2023/07/28 06:03:45;;;;;;;4.00;2.65;;;17.50;99.90;;;;;;4977661;28;20034;-79
2023/07/28 06:06:10;;;;;;;15.82;4.88;;;17.60;99.90;;;;;;4981305;28;20034;-79
2023/07/28 06:08:36;;;;;;;6.15;3.15;;;17.60;99.90;;;;;;4981356;28;20112;-79
2023/07/28 06:11:06;;;;;;;6.40;2.83;;;17.70;99.90;;;;;;4983261;28;20097;-79
2023/07/28 06:13:32;;;;;;;5.70;3.05;;;17.80;99.90;;;;;;4985051;28;20038;-79
2023/07/28 06:15:58;;;;;;;4.82;2.78;;;17.90;99.90;;;;;;4982525;28;20048;-79
2023/07/28 06:18:24;;;;;;;4.10;2.50;;;18.00;99.90;;;;;;4985340;28;20022;-79
2023/07/28 06:20:49;;;;;;;3.88;2.75;;;18.10;99.90;;;;;;4985238;28;20030;-79
2023/07/28 06:23:15;;;;;;;6.13;2.60;;;18.20;99.90;;;;;;4984477;28;20052;-79
2023/07/28 06:25:44;;;;;;;4.03;2.42;;;18.40;99.90;;;;;;4984687;28;20034;-79
2023/07/28 06:28:10;;;;;;;3.78;2.58;;;18.40;99.90;;;;;;4983053;28;20380;-80
2023/07/28 06:30:37;;;;;;;3.83;2.83;;;18.50;99.90;;;;;;4986136;28;20624;-79
2023/07/28 06:33:03;;;;;;;6.00;3.13;;;18.60;99.90;;;;;;4984956;28;20033;-79
2023/07/28 06:35:28;;;;;;;4.95;2.60;;;18.80;99.90;;;;;;4984827;28;20057;-79
2023/07/28 06:37:54;;;;;;;5.43;2.42;;;18.90;99.90;;;;;;4983276;28;20121;-79
2023/07/28 06:40:20;;;;;;;5.05;2.70;;;19.00;99.90;;;;;;4984918;28;20444;-79
2023/07/28 06:42:46;;;;;;;4.97;2.55;;;19.10;99.90;;;;;;4985410;28;20026;-79
2023/07/28 06:45:12;;;;;;;6.43;2.80;;;19.30;99.90;;;;;;4984959;28;20554;-78
2023/07/28 06:47:38;;;;;;;3.13;2.47;;;19.40;99.90;;;;;;4984583;28;20030;-79
2023/07/28 06:50:05;;;;;;;6.00;2.67;;;19.50;99.90;;;;;;4982840;28;20029;-80
2023/07/28 06:52:30;;;;;;;4.47;2.20;;;19.70;99.90;;;;;;4985988;28;20500;-80
2023/07/28 06:54:56;;;;;;;4.22;2.70;;;19.90;99.90;;;;;;4983897;28;20111;-79
2023/07/28 06:57:22;;;;;;;5.43;2.63;;;20.00;99.90;;;;;;4985025;28;20041;-79
2023/07/28 06:59:48;;;;;;;4.80;2.70;;;20.00;99.90;;;;;;4983590;28;20493;-79
2023/07/28 07:02:14;;;;;;;4.80;2.30;;;20.20;99.90;;;;;;4983943;28;20038;-79
2023/07/28 07:04:39;;;;;;;7.78;2.47;;;20.30;99.90;;;;;;4983872;28;20487;-79
2023/07/28 07:07:05;;;;;;;7.18;2.50;;;20.40;99.90;;;;;;4981733;28;20034;-79
2023/07/28 07:09:30;;;;;;;3.72;2.20;;;20.50;99.90;;;;;;4985026;28;20026;-79
2023/07/28 07:11:56;;;;;;;4.15;2.30;;;20.60;99.90;;;;;;4980295;28;20026;-79
2023/07/28 07:14:22;;;;;;;6.32;2.50;;;20.70;99.90;;;;;;4980977;28;20031;-79
2023/07/28 07:16:48;;;;;;;3.38;2.40;;;20.80;99.90;;;;;;4980525;28;20042;-79
2023/07/28 07:19:15;;;;;;;3.17;2.13;;;20.90;99.90;;;;;;4982350;28;20149;-79
2023/07/28 07:21:41;;;;;;;5.93;2.47;;;21.00;99.90;;;;;;4981162;28;20112;-79
2023/07/28 07:24:07;;;;;;;6.65;2.67;;;21.00;99.90;;;;;;4979311;28;20038;-80
2023/07/28 07:26:32;;;;;;;3.35;2.22;;;21.00;99.90;;;;;;4978785;28;20122;-78
2023/07/28 07:28:58;;;;;;;7.10;2.60;;;21.10;99.90;;;;;;4978933;28;20031;-79
2023/07/28 07:31:24;;;;;;;3.33;2.40;;;21.10;99.90;;;;;;4979377;28;20034;-79
2023/07/28 07:33:50;;;;;;;4.53;2.50;;;21.30;99.90;;;;;;4979666;28;20060;-79
2023/07/28 07:36:16;;;;;;;3.00;2.42;;;21.40;99.90;;;;;;4979623;28;20026;-79
2023/07/28 07:38:42;;;;;;;3.03;2.35;;;21.50;99.90;;;;;;4979890;28;20029;-78
2023/07/28 07:41:10;;;;;;;3.90;2.20;;;21.50;99.90;;;;;;4980138;28;20062;-79
2023/07/28 07:43:36;;;;;;;4.78;2.63;;;21.50;99.90;;;;;;4980393;28;20031;-79
2023/07/28 07:46:04;;;;;;;3.35;2.30;;;21.40;99.90;;;;;;4981829;28;20035;-81
2023/07/28 07:48:30;;;;;;;7.38;3.33;;;21.40;99.90;;;;;;4984255;28;20185;-79
2023/07/28 07:50:56;;;;;;;4.57;2.40;;;21.50;99.90;;;;;;4983484;28;20045;-78
2023/07/28 07:53:21;;;;;;;5.30;2.50;;;21.50;99.90;;;;;;4983036;28;20039;-79
2023/07/28 07:55:47;;;;;;;7.18;2.30;;;21.50;99.90;;;;;;4981643;28;20030;-79
2023/07/28 07:58:13;;;;;;;4.30;2.50;;;21.50;99.90;;;;;;4983764;28;20030;-79
2023/07/28 08:00:38;;;;;;;2.90;2.38;;;21.60;99.90;;;;;;4984373;28;20029;-79
2023/07/28 08:03:05;;;;;;;3.72;2.47;;;21.60;99.90;;;;;;4984476;28;20030;-79
2023/07/28 08:05:31;;;;;;;3.80;2.20;;;21.60;99.90;;;;;;4984146;28;20041;-78
2023/07/28 08:07:57;;;;;;;5.65;2.55;;;21.60;99.90;;;;;;4983970;28;20034;-79
2023/07/28 08:10:22;;;;;;;2.88;2.00;;;21.60;99.90;;;;;;4986241;28;20397;-79
2023/07/28 08:12:48;;;;;;;2.90;2.08;;;21.80;99.90;;;;;;4982885;28;20026;-78
2023/07/28 08:15:14;;;;;;;3.10;2.50;;;21.80;99.90;;;;;;4985580;28;20038;-80
2023/07/28 08:17:40;;;;;;;5.80;2.17;;;22.10;99.90;;;;;;4986459;28;20022;-79
2023/07/28 08:20:07;;;;;;;3.88;2.50;;;22.20;99.90;;;;;;4984045;28;20050;-81
2023/07/28 08:22:32;;;;;;;5.68;2.50;;;22.40;99.90;;;;;;4986619;28;20034;-79
2023/07/28 08:24:58;;;;;;;4.20;2.35;;;22.40;99.90;;;;;;4985474;28;20642;-82
2023/07/28 08:27:24;;;;;;;6.07;2.42;;;22.60;99.90;;;;;;4986291;28;20113;-81
2023/07/28 08:29:49;;;;;;;3.20;2.08;;;22.60;99.90;;;;;;4986363;28;20717;-79
2023/07/28 08:32:15;;;;;;;3.92;2.28;;;22.70;99.90;;;;;;4985814;28;20087;-79
2023/07/28 08:34:40;;;;;;;3.95;2.25;;;22.80;99.90;;;;;;4984760;28;20025;-80
2023/07/28 08:37:06;;;;;;;2.75;2.25;;;22.80;99.90;;;;;;4986657;28;21038;-80
2023/07/28 08:39:32;;;;;;;6.35;3.22;;;22.70;99.90;;;;;;4986717;28;20026;-79
2023/07/28 08:42:00;;;;;;;4.53;2.22;;;22.70;99.90;;;;;;4986001;28;20034;-80
2023/07/28 08:44:26;;;;;;;6.28;2.35;;;22.70;99.90;;;;;;4986143;28;20034;-80
2023/07/28 08:46:52;;;;;;;3.15;2.25;;;22.70;99.90;;;;;;4986597;28;20088;-80
2023/07/28 08:49:18;;;;;;;4.38;2.10;;;23.00;99.90;;;;;;4984215;28;20169;-80
2023/07/28 08:51:49;;;;;;;4.72;2.63;;;23.10;99.90;;;;;;4986877;28;20026;-80
2023/07/28 08:54:16;;;;;;;4.38;2.28;;;23.30;99.90;;;;;;4984493;28;20065;-80
2023/07/28 08:56:43;;;;;;;4.20;2.40;;;23.40;99.90;;;;;;4984677;28;20762;-80
2023/07/28 08:59:09;;;;;;;5.57;2.33;;;23.40;99.90;;;;;;4986423;28;20022;-80
2023/07/28 09:01:40;;;;;;;5.68;2.40;;;23.40;99.90;;;;;;4987949;28;20060;-80
2023/07/28 09:04:10;;;;;;;3.75;2.38;;;23.50;99.90;;;;;;4986943;28;20033;-79
2023/07/28 09:06:36;;;;;;;4.88;2.47;;;23.50;99.90;;;;;;4984417;28;20030;-80
2023/07/28 09:09:02;;;;;;;6.47;2.42;;;23.40;99.90;;;;;;4983738;28;20325;-80
2023/07/28 09:11:28;;;;;;;3.05;2.20;;;23.30;99.90;;;;;;4983855;28;20065;-79
2023/07/28 09:13:55;;;;;;;3.00;2.25;;;23.20;99.90;;;;;;4986206;28;20030;-80
2023/07/28 09:16:22;;;;;;;3.88;2.10;;;23.20;99.90;;;;;;4984992;28;20036;-80
2023/07/28 09:18:47;;;;;;;4.55;2.47;;;23.10;99.90;;;;;;4986154;28;20034;-79
2023/07/28 09:21:20;;;;;;;3.83;2.25;;;23.10;99.90;;;;;;4983674;28;20440;-80
2023/07/28 09:23:47;;;;;;;3.85;2.55;;;23.10;99.90;;;;;;4985995;28;20139;-80
2023/07/28 09:26:14;;;;;;;5.07;2.50;;;23.10;99.90;;;;;;4984866;28;20081;-80
2023/07/28 09:28:41;;;;;;;3.03;2.22;;;23.10;99.90;;;;;;4985069;28;20065;-79
2023/07/28 09:31:07;;;;;;;2.90;2.33;;;23.20;99.90;;;;;;4986371;28;20030;-80
2023/07/28 09:33:35;;;;;;;5.88;2.85;;;23.20;99.90;;;;;;4985228;28;20513;-79
2023/07/28 09:36:12;;;;;;;4.90;2.78;;;23.20;99.90;;;;;;4985925;28;20493;-80
2023/07/28 09:38:42;;;;;;;3.40;2.20;;;23.40;99.90;;;;;;4986420;28;20112;-79
2023/07/28 09:41:11;;;;;;;3.35;2.20;;;23.50;99.90;;;;;;4985328;28;20539;-80
2023/07/28 09:43:37;;;;;;;3.38;2.30;;;23.50;99.90;;;;;;4986447;28;20052;-79
2023/07/28 09:46:06;;;;;;;4.18;2.40;;;23.60;99.90;;;;;;4986156;28;20034;-79
2023/07/28 09:48:33;;;;;;;3.92;2.63;;;23.70;99.90;;;;;;4983855;28;20035;-79
2023/07/28 09:51:02;;;;;;;3.70;2.28;;;23.70;99.90;;;;;;4985653;28;20043;-80
2023/07/28 09:53:28;;;;;;;3.13;2.22;;;23.90;99.90;;;;;;4987406;28;20121;-79
2023/07/28 09:55:55;;;;;;;4.72;2.42;;;24.10;99.90;;;;;;4987985;28;20027;-79
2023/07/28 09:58:24;;;;;;;4.75;2.40;;;24.30;99.90;;;;;;4985840;28;21099;-79
2023/07/28 10:00:50;;;;;;;3.75;2.33;;;24.40;99.90;;;;;;4985185;28;20908;-79
2023/07/28 10:03:16;;;;;;;3.45;2.55;;;24.40;99.90;;;;;;4985915;28;20030;-79
2023/07/28 10:05:43;;;;;;;4.90;3.00;;;24.30;99.90;;;;;;4985384;28;20089;-80
2023/07/28 10:08:10;;;;;;;4.38;2.25;;;24.20;99.90;;;;;;4985493;28;20030;-79
2023/07/28 10:10:35;;;;;;;3.97;2.20;;;24.10;99.90;;;;;;4985352;28;20104;-80
2023/07/28 10:13:02;;;;;;;4.93;2.72;;;24.10;99.90;;;;;;4985374;28;20121;-79
2023/07/28 10:15:32;;;;;;;3.22;2.40;;;24.10;99.90;;;;;;4985008;28;21359;-80
2023/07/28 10:17:59;;;;;;;3.00;2.25;;;24.10;99.90;;;;;;4984220;28;20022;-80
2023/07/28 10:20:27;;;;;;;4.15;2.35;;;24.00;99.90;;;;;;4986294;28;20404;-79
2023/07/28 10:22:53;;;;;;;4.65;2.65;;;23.90;99.90;;;;;;4986652;28;20030;-79
2023/07/28 10:25:24;;;;;;;3.88;2.90;;;23.90;99.90;;;;;;4985396;28;20039;-80
2023/07/28 10:27:51;;;;;;;6.28;2.88;;;23.90;99.90;;;;;;4985755;28;20026;-80
2023/07/28 10:30:16;;;;;;;3.80;2.72;;;23.80;99.90;;;;;;4986339;28;20029;-81
2023/07/28 10:32:44;;;;;;;4.57;2.40;;;23.70;99.90;;;;;;4984997;28;20037;-79
2023/07/28 10:35:26;;;;;;;5.20;2.40;;;23.70;99.90;;;;;;4985095;28;20884;-80
2023/07/28 10:37:53;;;;;;;4.18;2.60;;;23.80;99.90;;;;;;4984865;28;20157;-80
2023/07/28 10:40:34;;;;;;;3.58;2.38;;;23.70;99.90;;;;;;4984525;28;20161;-79
2023/07/28 10:43:00;;;;;;;3.85;2.60;;;23.70;99.90;;;;;;4986563;28;20030;-80
2023/07/28 10:45:28;;;;;;;3.70;2.40;;;23.70;99.90;;;;;;4985856;28;20091;-80
2023/07/28 10:48:00;;;;;;;4.63;2.28;;;23.80;99.90;;;;;;4987009;28;20136;-80
2023/07/28 10:50:29;;;;;;;4.78;2.50;;;24.00;99.90;;;;;;4984115;28;20021;-80
2023/07/28 10:52:55;;;;;;;4.43;2.50;;;24.10;99.90;;;;;;4985539;28;20076;-80
2023/07/28 10:55:24;;;;;;;4.22;2.97;;;24.30;99.90;;;;;;4985014;28;20132;-79
2023/07/28 10:57:51;;;;;;;3.88;2.63;;;24.50;99.90;;;;;;4986269;28;20030;-79
2023/07/28 11:00:19;;;;;;;5.07;2.60;;;24.70;99.90;;;;;;4986581;28;20014;-79
2023/07/28 11:02:50;;;;;;;4.32;2.58;;;24.80;99.90;;;;;;4986447;28;20039;-79
2023/07/28 11:05:27;;;;;;;7.72;2.65;;;24.90;99.90;;;;;;4986359;28;20113;-79
2023/07/28 11:07:58;;;;;;;4.97;2.60;;;24.80;99.90;;;;;;4984698;28;20396;-80
2023/07/28 11:10:24;;;;;;;4.75;2.38;;;24.80;99.90;;;;;;4985186;28;20056;-79
2023/07/28 11:12:51;;;;;;;5.05;2.70;;;24.70;99.90;;;;;;4986009;28;20053;-79
2023/07/28 11:15:18;;;;;;;4.35;2.70;;;24.60;99.90;;;;;;4985742;28;20032;-78
2023/07/28 11:17:51;;;;;;;4.65;2.42;;;24.50;99.90;;;;;;4986195;28;20125;-80
2023/07/28 11:20:22;;;;;;;3.63;2.67;;;24.40;99.90;;;;;;5001225;28;20030;-79
2023/07/28 11:22:59;;;;;;;3.78;2.45;;;24.50;99.90;;;;;;4989169;28;20034;-79
2023/07/28 11:25:26;;;;;;;4.57;2.42;;;24.40;99.90;;;;;;4989155;28;20041;-80
2023/07/28 11:27:52;;;;;;;3.72;2.35;;;24.50;99.90;;;;;;4988620;28;20086;-80
2023/07/28 11:30:19;;;;;;;3.90;2.60;;;24.60;99.90;;;;;;4988736;28;20164;-80
2023/07/28 11:32:47;;;;;;;4.32;2.70;;;24.70;99.90;;;;;;4990080;28;20184;-79
2023/07/28 11:35:15;;;;;;;4.20;2.47;;;24.70;99.90;;;;;;4990011;28;20030;-80
2023/07/28 11:37:42;;;;;;;5.85;2.60;;;24.70;99.90;;;;;;4988290;28;20034;-79
2023/07/28 11:40:12;;;;;;;4.07;2.40;;;24.70;99.90;;;;;;4989865;28;20030;-79
2023/07/28 11:42:39;;;;;;;5.65;2.58;;;24.80;99.90;;;;;;4988032;28;20556;-80
2023/07/28 11:45:06;;;;;;;3.10;2.30;;;24.80;99.90;;;;;;4990104;28;20030;-79
2023/07/28 11:47:32;;;;;;;4.28;2.70;;;24.80;99.90;;;;;;4987467;28;20041;-80
2023/07/28 11:50:01;;;;;;;5.82;2.28;;;24.90;99.90;;;;;;4988586;28;20030;-80
2023/07/28 11:52:37;;;;;;;7.72;2.40;;;24.80;99.90;;;;;;4988012;28;20025;-79
2023/07/28 11:55:05;;;;;;;5.80;2.65;;;24.80;99.90;;;;;;4990122;28;20088;-79
2023/07/28 11:57:30;;;;;;;5.13;2.60;;;24.90;99.90;;;;;;4988424;28;20022;-79
2023/07/28 11:59:57;;;;;;;3.58;2.90;;;25.00;99.90;;;;;;4990427;28;20036;-80
2023/07/28 12:02:31;;;;;;;4.05;2.30;;;25.00;99.90;;;;;;4990384;28;20092;-80
2023/07/28 12:04:58;;;;;;;4.38;2.70;;;24.90;99.90;;;;;;4989294;28;20029;-80
2023/07/28 12:07:31;;;;;;;3.63;2.75;;;24.90;99.90;;;;;;4988573;28;20037;-80
2023/07/28 12:10:01;;;;;;;5.50;2.50;;;24.80;99.90;;;;;;4988577;28;20022;-80
2023/07/28 12:12:28;;;;;;;5.30;2.65;;;24.70;99.90;;;;;;4989534;28;20938;-80
2023/07/28 12:14:55;;;;;;;4.70;2.40;;;24.70;99.90;;;;;;4988127;28;20046;-80
2023/07/28 12:17:28;;;;;;;3.78;2.58;;;24.70;99.90;;;;;;4987993;28;20033;-79
2023/07/28 12:20:10;;;;;;;7.13;2.70;;;24.80;99.90;;;;;;4988619;28;20096;-79
2023/07/28 12:22:40;;;;;;;3.25;2.67;;;24.80;99.90;;;;;;4987438;28;20429;-80
2023/07/28 12:25:06;;;;;;;3.63;2.38;;;24.70;99.90;;;;;;4989656;28;20033;-80
2023/07/28 12:27:32;;;;;;;6.15;2.65;;;24.50;99.90;;;;;;4989197;28;20054;-79
2023/07/28 12:29:58;;;;;;;5.22;3.05;;;24.20;99.90;;;;;;4989199;28;20129;-80
2023/07/28 12:32:23;;;;;;;3.20;2.45;;;24.20;99.90;;;;;;4987924;28;20512;-80
2023/07/28 12:34:50;;;;;;;2.78;2.30;;;24.30;99.90;;;;;;4989168;28;20034;-79
2023/07/28 12:37:16;;;;;;;3.08;2.10;;;24.50;99.90;;;;;;4987179;28;20063;-79
2023/07/28 12:39:43;;;;;;;4.60;2.40;;;24.60;99.90;;;;;;4988770;28;20058;-80
2023/07/28 12:42:09;;;;;;;3.95;2.53;;;24.50;99.90;;;;;;4988639;28;20034;-80
2023/07/28 12:44:36;;;;;;;5.95;2.47;;;24.50;99.90;;;;;;4988659;28;20072;-80